Time;durP1;ratioP1;P1;durP2;ratioP2;P2;SDS_P1;SDS_P2;PMS_P1;PMS_P2;Temp;Humidity;BMP_temperature;BMP_pressure;BME280_temperature;BME280_humidity;BME280_pressure;Samples;Min_cycle;Max_cycle;Signal;HPM_P1;HPM_P2
2023/09/08 00:00:21;;;;;;;8.67;3.33;;;;;;;24.97;60.04;99380.09;5073888;28;20244;-87
2023/09/08 00:02:47;;;;;;;10.10;3.27;;;;;;;24.94;60.51;99378.59;5073774;28;20519;-87
2023/09/08 00:05:14;;;;;;;8.67;3.80;;;;;;;24.90;60.17;99379.06;5057034;28;20181;-87
2023/09/08 00:07:42;;;;;;;7.77;3.40;;;;;;;24.88;60.23;99373.03;5056083;28;20284;-87
2023/09/08 00:10:11;;;;;;;11.00;3.77;;;;;;;24.82;60.52;99374.53;5073564;28;20184;-87
2023/09/08 00:12:38;;;;;;;7.67;3.57;;;;;;;24.83;60.62;99380.75;5056083;28;20165;-87
2023/09/08 00:15:04;;;;;;;9.00;3.20;;;;;;;24.80;60.76;99386.44;5073685;28;20169;-87
2023/09/08 00:17:31;;;;;;;10.63;3.73;;;;;;;24.75;60.93;99378.84;5055892;28;20631;-87
2023/09/08 00:19:58;;;;;;;6.67;2.90;;;;;;;24.72;61.19;99373.81;5073819;28;20169;-87
2023/09/08 00:22:24;;;;;;;6.23;3.20;;;;;;;24.70;61.42;99369.63;5073493;28;20180;-87
2023/09/08 00:24:51;;;;;;;8.40;3.13;;;;;;;24.65;61.16;99364.75;5056032;28;20177;-87
2023/09/08 00:27:18;;;;;;;7.77;3.03;;;;;;;24.62;61.24;99366.91;5041488;28;20593;-87
2023/09/08 00:29:45;;;;;;;7.63;3.23;;;;;;;24.57;61.31;99362.06;5054029;28;20180;-88
2023/09/08 00:32:12;;;;;;;10.40;3.03;;;;;;;24.53;61.48;99365.22;5053637;28;20213;-87
2023/09/08 00:34:40;;;;;;;10.90;2.97;;;;;;;24.52;61.41;99364.41;5032316;28;20234;-87
2023/09/08 00:37:07;;;;;;;8.23;3.07;;;;;;;24.39;61.32;99370.22;5033717;28;20214;-87
2023/09/08 00:39:35;;;;;;;7.40;2.83;;;;;;;24.23;62.16;99363.94;5032551;28;20178;-87
2023/09/08 00:42:02;;;;;;;7.37;2.70;;;;;;;24.15;62.54;99364.75;5052392;28;20182;-87
2023/09/08 00:44:29;;;;;;;8.73;3.20;;;;;;;24.10;62.48;99360.88;5053224;28;20174;-87
2023/09/08 00:46:56;;;;;;;7.43;2.53;;;;;;;24.07;62.34;99355.81;5052132;28;20187;-87
2023/09/08 00:49:23;;;;;;;5.73;2.80;;;;;;;24.07;62.51;99366.53;5053701;28;20631;-87
2023/09/08 00:51:48;;;;;;;7.27;2.70;;;;;;;24.05;62.21;99360.50;5052239;28;20177;-87
2023/09/08 00:54:15;;;;;;;4.27;2.00;;;;;;;24.02;62.37;99364.34;5053159;28;20597;-87
2023/09/08 00:56:42;;;;;;;5.40;2.47;;;;;;;23.98;62.32;99360.28;5051927;28;20185;-87
2023/09/08 00:59:09;;;;;;;6.13;2.57;;;;;;;23.95;62.04;99362.47;5053047;28;20256;-87
2023/09/08 01:01:36;;;;;;;5.47;2.40;;;;;;;23.95;61.90;99354.44;5053135;28;20661;-87
2023/09/08 01:04:02;;;;;;;4.27;2.33;;;;;;;23.89;62.07;99353.22;5052905;28;20239;-87
2023/09/08 01:06:32;;;;;;;5.40;2.30;;;;;;;23.74;62.51;99352.97;5053015;28;20740;-87
2023/09/08 01:08:59;;;;;;;7.97;3.03;;;;;;;23.65;62.63;99353.91;5052335;28;20290;-87
2023/09/08 01:11:25;;;;;;;4.83;2.07;;;;;;;23.58;62.67;99358.25;5052939;28;20227;-87
2023/09/08 01:13:52;;;;;;;3.87;1.90;;;;;;;23.51;63.36;99354.50;5053466;28;20178;-87
2023/09/08 01:16:19;;;;;;;5.10;2.30;;;;;;;23.53;62.99;99357.84;5052958;28;20182;-87
2023/09/08 01:18:48;;;;;;;4.73;2.57;;;;;;;23.56;62.52;99349.50;5053174;28;20283;-87
2023/09/08 01:22:21;;;;;;;6.43;2.73;;;;;;;23.58;62.49;99349.38;5052836;28;20186;-87
2023/09/08 01:25:11;;;;;;;5.33;2.30;;;;;;;23.57;62.97;99343.16;5031135;28;20240;-87
2023/09/08 01:27:43;;;;;;;6.37;3.10;;;;;;;23.55;63.30;99347.00;5031178;28;20248;-87
2023/09/08 01:30:10;;;;;;;9.13;2.93;;;;;;;23.51;64.08;99343.78;5031786;28;20283;-87
2023/09/08 01:32:36;;;;;;;5.90;3.00;;;;;;;23.56;63.93;99340.63;5032899;28;20179;-87
2023/09/08 01:35:02;;;;;;;4.93;2.80;;;;;;;23.55;64.31;99345.16;5039739;28;20204;-87
2023/09/08 01:37:27;;;;;;;6.53;3.57;;;;;;;23.57;64.05;99335.13;5035146;28;20178;-87
2023/09/08 01:39:53;;;;;;;9.93;3.07;;;;;;;23.56;64.88;99336.13;5052677;28;20268;-87
2023/09/08 01:42:18;;;;;;;9.97;3.47;;;;;;;23.57;64.74;99337.81;5053428;28;20180;-87
2023/09/08 01:44:43;;;;;;;8.33;2.90;;;;;;;23.58;65.01;99333.31;5052596;28;20212;-87
2023/09/08 01:47:10;;;;;;;9.83;3.40;;;;;;;23.61;64.99;99335.66;5064851;28;20274;-87
2023/09/08 01:49:37;;;;;;;6.97;3.10;;;;;;;23.60;64.94;99342.84;5072831;28;20171;-87
2023/09/08 01:52:04;;;;;;;7.30;2.60;;;;;;;23.63;65.11;99333.66;5073119;28;20260;-86
2023/09/08 01:54:31;;;;;;;8.90;3.40;;;;;;;23.65;64.72;99340.53;5072657;28;20177;-87
2023/09/08 01:56:57;;;;;;;6.73;3.13;;;;;;;23.65;64.54;99335.19;5072371;28;20215;-87
2023/09/08 01:59:24;;;;;;;6.97;3.03;;;;;;;23.64;65.04;99330.81;5073094;28;20238;-87
2023/09/08 02:01:50;;;;;;;5.80;3.20;;;;;;;23.62;65.35;99335.50;5072792;28;20260;-87
2023/09/08 02:04:17;;;;;;;6.87;3.30;;;;;;;23.65;65.34;99329.00;5072732;28;20551;-87
2023/09/08 02:06:43;;;;;;;8.00;3.20;;;;;;;23.60;65.13;99332.16;5072377;28;20327;-87
2023/09/08 02:09:13;;;;;;;5.83;3.20;;;;;;;23.56;65.90;99335.28;5072293;28;20196;-86
2023/09/08 02:11:41;;;;;;;7.70;3.80;;;;;;;23.48;66.42;99333.41;5072736;28;20189;-87
2023/09/08 02:14:08;;;;;;;8.90;3.77;;;;;;;23.47;66.18;99337.09;5074055;28;20206;-87
2023/09/08 02:16:35;;;;;;;7.83;4.30;;;;;;;23.48;66.67;99327.22;5058241;28;20208;-87
2023/09/08 02:19:02;;;;;;;7.10;3.80;;;;;;;23.50;66.50;99330.56;5075815;28;20264;-87
2023/09/08 02:21:29;;;;;;;11.40;3.70;;;;;;;23.50;66.41;99333.25;5058191;28;20224;-87
2023/09/08 02:23:54;;;;;;;7.57;3.53;;;;;;;23.49;66.11;99328.88;5076236;28;20227;-87
2023/09/08 02:26:20;;;;;;;8.30;3.77;;;;;;;23.46;66.52;99324.69;5075693;28;20177;-86
2023/09/08 02:28:47;;;;;;;8.67;3.93;;;;;;;23.44;66.03;99326.69;5057966;28;20201;-87
2023/09/08 02:31:13;;;;;;;6.53;3.60;;;;;;;23.39;66.53;99325.47;5057991;28;20185;-87
2023/09/08 02:33:40;;;;;;;8.37;4.37;;;;;;;23.34;66.80;99327.75;5075595;28;20217;-87
2023/09/08 02:36:06;;;;;;;10.37;4.77;;;;;;;23.29;66.88;99324.72;5075490;28;20223;-86
2023/09/08 02:38:32;;;;;;;6.43;3.47;;;;;;;23.28;66.88;99326.53;5057731;28;20173;-87
2023/09/08 02:40:59;;;;;;;6.67;3.77;;;;;;;23.24;66.87;99325.19;5075466;28;20188;-87
2023/09/08 02:43:27;;;;;;;11.57;3.80;;;;;;;23.27;66.66;99326.72;5075386;28;20657;-86
2023/09/08 02:45:53;;;;;;;8.83;3.83;;;;;;;23.28;66.48;99326.53;5075206;28;20188;-87
2023/09/08 02:48:20;;;;;;;9.43;4.37;;;;;;;23.21;66.55;99323.66;5075318;28;20239;-87
2023/09/08 02:50:46;;;;;;;8.50;3.43;;;;;;;23.12;66.65;99319.25;5075709;28;20222;-86
2023/09/08 02:53:12;;;;;;;11.50;3.80;;;;;;;23.13;66.83;99317.41;5057586;28;20626;-86
2023/09/08 02:55:38;;;;;;;6.20;3.53;;;;;;;23.17;66.83;99321.44;5075401;28;20271;-86
2023/09/08 02:58:05;;;;;;;9.80;4.13;;;;;;;23.13;66.67;99314.75;5057510;28;20196;-87
2023/09/08 03:00:32;;;;;;;9.83;4.07;;;;;;;23.15;66.78;99315.41;5075366;28;20195;-86
2023/09/08 03:02:58;;;;;;;8.57;4.47;;;;;;;23.09;67.10;99310.69;5057443;28;20180;-87
2023/09/08 03:05:24;;;;;;;8.27;4.17;;;;;;;23.09;67.05;99318.69;5075063;28;20176;-86
2023/09/08 03:07:50;;;;;;;8.67;4.43;;;;;;;23.10;66.97;99317.72;5057111;28;20286;-87
2023/09/08 03:10:16;;;;;;;6.77;3.30;;;;;;;23.13;66.93;99318.25;5074896;28;20204;-86
2023/09/08 03:12:43;;;;;;;5.90;3.50;;;;;;;23.14;67.10;99319.91;5075191;28;20212;-87
2023/09/08 03:15:10;;;;;;;6.03;3.47;;;;;;;23.20;66.72;99318.47;5074468;28;20611;-87
2023/09/08 03:17:36;;;;;;;7.73;3.33;;;;;;;23.18;66.68;99321.31;5074817;28;20180;-86
2023/09/08 03:20:07;;;;;;;7.27;4.10;;;;;;;23.16;66.52;99327.81;5075030;28;20180;-87
2023/09/08 03:22:33;;;;;;;10.37;4.20;;;;;;;23.18;66.49;99321.31;5057080;28;20268;-87
2023/09/08 03:24:59;;;;;;;8.83;4.00;;;;;;;23.18;66.54;99326.66;5073483;28;20181;-87
2023/09/08 03:27:26;;;;;;;8.57;4.00;;;;;;;23.17;66.61;99319.59;5074698;28;20204;-87
2023/09/08 03:29:52;;;;;;;5.77;3.17;;;;;;;23.12;66.06;99326.41;5056794;28;20593;-86
2023/09/08 03:32:19;;;;;;;4.87;2.70;;;;;;;23.12;65.12;99315.72;5056885;28;20177;-87
2023/09/08 03:34:44;;;;;;;7.07;2.77;;;;;;;23.13;64.96;99322.75;5074126;28;20189;-87
2023/09/08 03:37:11;;;;;;;7.20;2.70;;;;;;;23.15;64.93;99321.59;5074734;28;20264;-87
2023/09/08 03:39:37;;;;;;;6.60;3.17;;;;;;;23.18;64.53;99320.44;5074374;28;20212;-87
2023/09/08 03:42:04;;;;;;;7.07;3.50;;;;;;;23.12;65.05;99313.88;5074219;28;20200;-87
2023/09/08 03:44:30;;;;;;;5.63;3.10;;;;;;;23.06;66.04;99316.38;5074281;28;20178;-86
2023/09/08 03:46:56;;;;;;;10.43;3.70;;;;;;;23.02;66.41;99313.16;5074069;28;20181;-87
2023/09/08 03:49:23;;;;;;;6.87;3.67;;;;;;;23.06;66.27;99327.06;5074436;28;20195;-86
2023/09/08 03:51:49;;;;;;;7.93;4.07;;;;;;;23.07;66.26;99323.38;5074616;28;20181;-86
2023/09/08 03:54:14;;;;;;;7.33;3.30;;;;;;;23.15;66.51;99331.47;5056429;28;20199;-87
2023/09/08 03:56:41;;;;;;;7.00;3.17;;;;;;;23.19;66.51;99332.84;5073954;28;20260;-86
2023/09/08 03:59:07;;;;;;;9.07;4.03;;;;;;;23.20;66.21;99330.00;5056840;28;20581;-86
2023/09/08 04:01:34;;;;;;;6.63;2.90;;;;;;;23.29;65.88;99338.09;5044057;28;20193;-86
2023/09/08 04:04:00;;;;;;;9.80;3.53;;;;;;;23.30;66.15;99332.56;5053909;28;20177;-87
2023/09/08 04:06:28;;;;;;;7.57;3.07;;;;;;;23.32;66.14;99338.63;5019980;28;20181;-86
2023/09/08 04:08:53;;;;;;;6.40;3.27;;;;;;;23.40;66.06;99338.69;5042942;28;20212;-87
2023/09/08 04:11:19;;;;;;;8.37;3.47;;;;;;;23.41;65.58;99343.06;5052993;28;20189;-86
2023/09/08 04:13:44;;;;;;;9.67;3.57;;;;;;;23.42;65.70;99344.75;5065955;28;20223;-86
2023/09/08 04:16:10;;;;;;;6.80;3.33;;;;;;;23.44;65.64;99340.06;5056712;28;20204;-86
2023/09/08 04:18:35;;;;;;;7.30;3.10;;;;;;;23.46;65.59;99346.09;5055658;28;20622;-86
2023/09/08 04:21:01;;;;;;;6.97;2.93;;;;;;;23.44;65.75;99341.91;5055806;28;20181;-86
2023/09/08 04:23:26;;;;;;;8.60;3.40;;;;;;;23.47;65.63;99346.94;5056034;28;20173;-86
2023/09/08 04:25:51;;;;;;;6.87;3.10;;;;;;;23.58;65.27;99349.38;5073366;28;20173;-86
2023/09/08 04:28:17;;;;;;;5.27;2.93;;;;;;;23.61;65.25;99355.22;5055591;28;20193;-86
2023/09/08 04:30:42;;;;;;;4.87;2.80;;;;;;;23.69;65.12;99349.91;5055790;28;20283;-87
2023/09/08 04:33:07;;;;;;;10.07;3.10;;;;;;;23.73;65.05;99359.31;5073354;28;20598;-87
2023/09/08 04:35:33;;;;;;;5.30;2.77;;;;;;;23.71;65.05;99355.13;5055560;28;20203;-87
2023/09/08 04:37:59;;;;;;;6.27;3.10;;;;;;;23.74;64.75;99358.31;5055396;28;20177;-87
2023/09/08 04:40:26;;;;;;;6.97;3.20;;;;;;;23.78;64.73;99364.19;5054327;28;20237;-86
2023/09/08 04:42:52;;;;;;;5.27;2.93;;;;;;;23.80;64.25;99371.06;5054274;28;20192;-86
2023/09/08 04:45:18;;;;;;;5.60;2.47;;;;;;;23.82;63.96;99363.72;5071873;28;20173;-86
2023/09/08 04:47:46;;;;;;;8.03;3.37;;;;;;;23.95;63.58;99363.28;5061664;28;20208;-86
2023/09/08 04:50:13;;;;;;;6.27;3.10;;;;;;;24.08;63.12;99363.69;5074998;28;20674;-86
2023/09/08 04:52:38;;;;;;;6.60;2.80;;;;;;;24.20;62.75;99358.91;5080156;28;20181;-87
2023/09/08 04:55:05;;;;;;;4.47;2.57;;;;;;;24.24;61.06;99361.09;5073179;28;20254;-86
2023/09/08 04:57:31;;;;;;;5.13;2.67;;;;;;;24.36;61.35;99367.00;5073524;28;20707;-87
2023/09/08 04:59:56;;;;;;;5.13;2.37;;;;;;;24.47;60.61;99363.19;5072801;28;20263;-86
2023/09/08 05:02:22;;;;;;;8.43;2.83;;;;;;;24.58;60.14;99371.75;5055547;28;20227;-86
2023/09/08 05:04:47;;;;;;;10.37;3.17;;;;;;;24.72;60.46;99365.78;5073181;28;20187;-87
2023/09/08 05:07:13;;;;;;;3.80;2.10;;;;;;;24.80;58.67;99362.28;5073096;28;20180;-87
2023/09/08 05:09:38;;;;;;;4.03;2.47;;;;;;;24.90;59.00;99369.19;5073124;28;20614;-87
2023/09/08 05:12:05;;;;;;;7.40;2.47;;;;;;;24.96;56.76;99373.03;5072964;28;20282;-87
2023/09/08 05:14:32;;;;;;;4.60;2.30;;;;;;;24.92;56.33;99372.53;5055981;28;20177;-87
2023/09/08 05:16:58;;;;;;;4.97;2.80;;;;;;;24.97;55.64;99378.22;5055330;28;20177;-87
2023/09/08 05:19:25;;;;;;;6.07;2.47;;;;;;;25.03;55.97;99377.56;5055344;28;20616;-87
2023/09/08 05:21:54;;;;;;;7.13;2.43;;;;;;;25.17;56.24;99375.25;5055517;28;20199;-87
2023/09/08 05:24:21;;;;;;;5.67;2.80;;;;;;;25.24;55.57;99378.91;5073231;28;20201;-87
2023/09/08 05:26:48;;;;;;;4.73;2.27;;;;;;;25.38;54.73;99376.41;5055305;28;20180;-87
2023/09/08 05:29:14;;;;;;;4.90;2.10;;;;;;;25.50;54.37;99377.78;5055126;28;20282;-87
2023/09/08 05:31:41;;;;;;;4.40;1.90;;;;;;;25.70;52.79;99380.94;5055181;28;20181;-86
2023/09/08 05:34:08;;;;;;;6.83;2.07;;;;;;;25.78;53.63;99383.63;5073156;28;20187;-87
2023/09/08 05:36:39;;;;;;;6.47;2.03;;;;;;;25.83;53.23;99380.41;5072801;28;20634;-87
2023/09/08 05:39:06;;;;;;;3.90;1.90;;;;;;;25.93;52.64;99383.72;5073112;28;20165;-87
2023/09/08 05:41:33;;;;;;;7.23;2.43;;;;;;;26.08;51.41;99390.91;5072618;28;20181;-87
2023/09/08 05:44:00;;;;;;;4.10;2.20;;;;;;;26.22;51.77;99390.22;5072650;28;20181;-87
2023/09/08 05:46:25;;;;;;;7.47;2.43;;;;;;;26.36;50.45;99387.81;5022492;28;20276;-87
2023/09/08 05:48:52;;;;;;;4.53;2.20;;;;;;;26.38;49.32;99393.84;5074762;28;20291;-87
2023/09/08 05:51:18;;;;;;;4.30;1.97;;;;;;;26.39;49.48;99393.66;5076535;28;20177;-87
2023/09/08 05:53:45;;;;;;;5.93;1.70;;;;;;;26.52;48.76;99393.94;5076333;28;20590;-87
2023/09/08 05:56:11;;;;;;;3.70;2.00;;;;;;;26.78;48.77;99396.38;5076871;28;20529;-87
2023/09/08 05:58:38;;;;;;;4.63;1.97;;;;;;;27.02;47.12;99385.44;5076393;28;20553;-87
2023/09/08 06:01:04;;;;;;;4.73;2.73;;;;;;;27.09;47.41;99390.97;5076254;28;20271;-88
2023/09/08 06:03:31;;;;;;;6.83;2.13;;;;;;;27.19;47.30;99387.00;5076038;28;20259;-87
2023/09/08 06:05:58;;;;;;;9.40;2.20;;;;;;;27.32;47.11;99389.09;5076556;28;20173;-87
2023/09/08 06:08:24;;;;;;;6.33;2.00;;;;;;;27.50;46.20;99383.41;5058517;28;20248;-87
2023/09/08 06:10:50;;;;;;;4.30;1.80;;;;;;;27.67;45.30;99380.41;5058496;28;20271;-87
2023/09/08 06:13:17;;;;;;;5.37;2.23;;;;;;;27.74;45.20;99385.88;5075991;28;20216;-87
2023/09/08 06:15:42;;;;;;;4.07;1.97;;;;;;;27.77;45.92;99385.50;5058480;28;20702;-87
2023/09/08 06:18:08;;;;;;;5.30;2.05;;;;;;;27.99;45.83;99388.09;5058392;28;20598;-87
2023/09/08 06:20:34;;;;;;;4.97;2.03;;;;;;;28.33;43.82;99387.56;5075991;28;20173;-87
2023/09/08 06:22:59;;;;;;;4.70;1.63;;;;;;;28.68;42.11;99390.53;5076504;28;20199;-87
2023/09/08 06:25:28;;;;;;;3.28;1.77;;;;;;;28.98;41.77;99392.13;5076123;28;20538;-87
2023/09/08 06:27:53;;;;;;;5.10;2.60;;;;;;;29.34;41.14;99387.50;5075597;28;20613;-86
2023/09/08 06:30:19;;;;;;;6.95;1.92;;;;;;;29.60;40.88;99406.66;5055829;28;20174;-86
2023/09/08 06:32:45;;;;;;;3.58;1.92;;;;;;;30.02;39.87;99392.22;5056010;28;20645;-87
2023/09/08 06:35:12;;;;;;;6.63;1.70;;;;;;;30.38;38.13;99400.97;5062659;28;20189;-87
2023/09/08 06:37:39;;;;;;;4.30;1.95;;;;;;;30.62;37.10;99390.66;5058086;28;20177;-87
2023/09/08 06:40:06;;;;;;;3.53;1.98;;;;;;;30.90;36.62;99394.91;5075655;28;20215;-87
2023/09/08 06:42:33;;;;;;;3.35;1.38;;;;;;;31.10;36.47;99388.75;5076384;28;20173;-88
2023/09/08 06:45:00;;;;;;;4.00;1.75;;;;;;;31.24;36.56;99401.25;5057757;28;20173;-88
2023/09/08 06:47:25;;;;;;;4.55;1.80;;;;;;;31.70;34.94;99396.75;5075945;28;20204;-88
2023/09/08 06:49:52;;;;;;;3.00;1.38;;;;;;;31.95;33.87;99400.44;5075686;28;20262;-88
2023/09/08 06:52:18;;;;;;;3.85;1.98;;;;;;;32.26;33.13;99404.41;5057891;28;20601;-88
2023/09/08 06:54:45;;;;;;;6.53;1.58;;;;;;;32.51;33.69;99405.34;5075871;28;20243;-89
2023/09/08 06:57:12;;;;;;;3.10;1.70;;;;;;;32.73;34.35;99417.63;5075219;28;20192;-88
2023/09/08 06:59:39;;;;;;;5.55;1.73;;;;;;;32.96;32.46;99404.31;5056811;28;20177;-89
2023/09/08 07:02:07;;;;;;;3.30;1.60;;;;;;;33.22;31.86;99406.91;5074970;28;20173;-89
2023/09/08 07:04:33;;;;;;;6.68;2.00;;;;;;;33.16;33.35;99407.78;5057556;28;20294;-87
2023/09/08 07:07:07;;;;;;;4.07;1.95;;;;;;;33.31;32.71;99399.31;5075432;28;20290;-89
2023/09/08 07:09:37;;;;;;;4.32;1.75;;;;;;;33.46;31.86;99399.00;5057483;28;20560;-89
2023/09/08 07:12:06;;;;;;;5.32;1.88;;;;;;;33.24;31.67;99393.09;5075084;28;20211;-88
2023/09/08 07:14:32;;;;;;;8.18;1.98;;;;;;;33.07;32.07;99398.22;5074959;28;20180;-89
2023/09/08 07:16:59;;;;;;;5.55;1.90;;;;;;;32.89;31.33;99389.94;5057240;28;20518;-88
2023/09/08 07:19:27;;;;;;;2.63;1.50;;;;;;;32.73;31.33;99385.84;5074752;28;20177;-90
2023/09/08 07:21:52;;;;;;;4.55;1.55;;;;;;;32.55;31.65;99387.59;5057176;28;20563;-89
2023/09/08 07:24:17;;;;;;;9.23;2.17;;;;;;;32.37;31.95;99393.69;5057156;28;20737;-88
2023/09/08 07:26:44;;;;;;;3.17;1.55;;;;;;;32.30;33.89;99394.78;5074976;28;20165;-89
2023/09/08 07:29:11;;;;;;;4.38;1.60;;;;;;;32.37;32.58;99387.44;5074730;28;20265;-88
2023/09/08 07:31:39;;;;;;;3.55;1.40;;;;;;;32.41;32.50;99389.53;5056987;28;20184;-88
2023/09/08 07:34:06;;;;;;;2.45;1.10;;;;;;;32.44;32.83;99388.25;5074543;28;20173;-88
2023/09/08 07:36:33;;;;;;;6.65;1.48;;;;;;;32.41;32.19;99385.97;5057909;28;20207;-90
2023/09/08 07:39:01;;;;;;;4.57;1.75;;;;;;;32.53;32.28;99385.09;5074694;28;20200;-88
2023/09/08 07:41:26;;;;;;;3.65;1.63;;;;;;;32.55;32.91;99384.88;5056700;28;20177;-88
2023/09/08 07:43:53;;;;;;;3.50;1.90;;;;;;;32.62;32.41;99388.41;5057069;28;20687;-88
2023/09/08 07:46:20;;;;;;;3.20;1.73;;;;;;;32.66;32.85;99395.06;5074383;28;20173;-88
2023/09/08 07:48:46;;;;;;;3.55;1.80;;;;;;;32.73;32.36;99388.56;5056863;28;20193;-88
2023/09/08 07:51:13;;;;;;;3.85;1.60;;;;;;;32.58;32.35;99385.28;5074133;28;20716;-87
2023/09/08 07:53:40;;;;;;;3.10;1.50;;;;;;;32.38;32.76;99395.38;5074190;28;20539;-87
2023/09/08 07:56:05;;;;;;;6.15;2.10;;;;;;;32.62;32.39;99391.13;5074140;28;20226;-88
2023/09/08 07:58:32;;;;;;;3.10;1.48;;;;;;;32.80;32.59;99386.66;5056483;28;20180;-88
2023/09/08 08:00:58;;;;;;;4.03;1.48;;;;;;;33.01;32.62;99381.94;5074606;28;20173;-88
2023/09/08 08:03:25;;;;;;;4.32;1.65;;;;;;;33.29;32.07;99383.22;5056163;28;20626;-88
2023/09/08 08:05:52;;;;;;;2.97;1.27;;;;;;;33.33;31.38;99383.63;5056712;28;20191;-88
2023/09/08 08:08:17;;;;;;;4.32;1.60;;;;;;;33.23;31.17;99381.38;5057024;28;20193;-87
2023/09/08 08:10:43;;;;;;;4.70;1.70;;;;;;;32.97;32.42;99378.00;5056105;28;20175;-87
2023/09/08 08:13:09;;;;;;;2.67;1.45;;;;;;;33.21;32.44;99378.06;5056086;28;20195;-88
2023/09/08 08:15:37;;;;;;;3.25;1.55;;;;;;;33.26;32.56;99371.97;5056185;28;20627;-88
2023/09/08 08:18:06;;;;;;;7.65;2.03;;;;;;;33.16;33.01;99372.47;5056405;28;20238;-88
2023/09/08 08:20:36;;;;;;;4.38;1.92;;;;;;;33.00;31.67;99374.81;5056358;28;20181;-88
2023/09/08 08:23:03;;;;;;;5.00;1.70;;;;;;;32.98;32.42;99376.94;5056007;28;20189;-88
2023/09/08 08:25:30;;;;;;;5.00;1.77;;;;;;;33.12;31.82;99368.53;5056089;28;20184;-88
2023/09/08 08:27:58;;;;;;;2.67;1.27;;;;;;;33.29;32.69;99375.06;5073545;28;20197;-89
2023/09/08 08:30:25;;;;;;;4.22;1.60;;;;;;;33.32;32.04;99368.38;5073733;28;20550;-87
2023/09/08 08:32:53;;;;;;;3.88;1.40;;;;;;;33.21;32.13;99363.63;5073021;28;20208;-88
2023/09/08 08:35:21;;;;;;;3.80;1.90;;;;;;;33.24;31.97;99366.75;5073559;28;20231;-89
2023/09/08 08:37:48;;;;;;;4.75;2.03;;;;;;;33.44;33.18;99365.78;5073460;28;20215;-87
2023/09/08 08:40:14;;;;;;;3.50;1.75;;;;;;;33.59;31.42;99353.53;5073399;28;20622;-88
2023/09/08 08:42:42;;;;;;;6.70;1.33;;;;;;;33.61;31.47;99358.75;5056013;28;20546;-88
2023/09/08 08:45:08;;;;;;;3.90;1.50;;;;;;;33.39;31.51;99353.66;5073652;28;20177;-88
2023/09/08 08:47:33;;;;;;;4.68;1.60;;;;;;;33.04;31.02;99349.78;5074106;28;20201;-88
2023/09/08 08:50:01;;;;;;;2.97;1.50;;;;;;;33.09;30.97;99354.53;5056212;28;20184;-88
2023/09/08 08:52:29;;;;;;;3.60;1.65;;;;;;;33.10;31.19;99350.78;5055916;28;20192;-88
2023/09/08 08:54:56;;;;;;;2.90;1.35;;;;;;;32.95;31.79;99351.03;5055703;28;20196;-87
2023/09/08 08:57:23;;;;;;;5.07;1.83;;;;;;;32.71;31.13;99354.53;5055508;28;20193;-89
2023/09/08 08:59:53;;;;;;;4.75;1.48;;;;;;;32.11;32.11;99351.22;5055784;28;20542;-88
2023/09/08 09:02:22;;;;;;;4.28;1.58;;;;;;;31.98;32.46;99359.34;5055518;28;20246;-88
2023/09/08 09:04:49;;;;;;;3.47;1.63;;;;;;;31.98;31.09;99359.34;5073574;28;20672;-88
2023/09/08 09:07:18;;;;;;;2.88;1.40;;;;;;;32.10;32.73;99346.00;5073537;28;20176;-88
2023/09/08 09:09:45;;;;;;;5.53;1.92;;;;;;;32.32;33.15;99354.69;5073586;28;20183;-88
2023/09/08 09:12:12;;;;;;;8.32;1.83;;;;;;;32.57;32.46;99347.53;5072979;28;20199;-88
2023/09/08 09:14:45;;;;;;;2.60;1.50;;;;;;;32.69;32.08;99338.47;5073609;28;20537;-88
2023/09/08 09:17:10;;;;;;;5.45;1.73;;;;;;;32.91;30.24;99347.13;5056265;28;20172;-88
2023/09/08 09:19:37;;;;;;;3.35;1.95;;;;;;;33.11;31.48;99328.81;5072973;28;20551;-89
2023/09/08 09:22:03;;;;;;;5.05;1.83;;;;;;;33.30;31.09;99338.72;5061880;28;20181;-88
2023/09/08 09:24:46;;;;;;;4.82;1.75;;;;;;;33.22;30.61;99336.25;5066787;28;20267;-88
2023/09/08 09:27:14;;;;;;;7.20;1.77;;;;;;;33.34;30.77;99323.59;5047508;28;20177;-88
2023/09/08 09:29:47;;;;;;;3.20;1.83;;;;;;;33.36;30.74;99329.66;5052424;28;20183;-88
2023/09/08 09:32:13;;;;;;;7.10;2.50;;;;;;;33.15;30.44;99319.16;5066093;28;20185;-88
2023/09/08 09:34:53;;;;;;;6.05;2.20;;;;;;;32.85;31.32;99318.09;5062257;28;20219;-88
2023/09/08 09:37:19;;;;;;;2.92;1.70;;;;;;;32.92;30.81;99323.47;5050782;28;20594;-88
2023/09/08 09:39:52;;;;;;;4.78;2.03;;;;;;;33.01;31.15;99327.59;5050363;28;20626;-88
2023/09/08 09:42:19;;;;;;;3.33;1.45;;;;;;;32.88;30.66;99323.09;5045992;28;20276;-88
2023/09/08 09:44:47;;;;;;;4.78;2.40;;;;;;;32.70;31.47;99325.72;5062276;28;20181;-88
2023/09/08 09:47:13;;;;;;;3.80;1.23;;;;;;;32.48;31.38;99322.47;5047777;28;20212;-88
2023/09/08 09:49:46;;;;;;;4.05;1.70;;;;;;;32.37;31.19;99319.59;5042560;28;20647;-89
2023/09/08 09:52:13;;;;;;;3.38;1.83;;;;;;;32.32;31.63;99327.53;5063093;28;20275;-89
2023/09/08 09:54:41;;;;;;;3.15;1.40;;;;;;;32.27;30.89;99316.50;5049698;28;20186;-88
2023/09/08 09:57:06;;;;;;;5.00;1.88;;;;;;;31.84;31.72;99319.75;5065780;28;20216;-87
2023/09/08 09:59:33;;;;;;;3.35;1.40;;;;;;;31.97;33.05;99310.75;5057349;28;20169;-88
2023/09/08 10:01:59;;;;;;;4.07;1.60;;;;;;;32.35;30.89;99300.81;5066920;28;20205;-88
2023/09/08 10:04:26;;;;;;;3.13;1.40;;;;;;;32.32;31.37;99311.25;5052833;28;20177;-88
2023/09/08 10:11:06;;;;;;;4.70;1.52;;;;;;;32.16;31.84;99301.72;4918244;29;20202;-87
2023/09/08 10:13:42;;;;;;;6.05;1.52;;;;;;;32.02;33.84;99295.53;4956743;28;20291;-87
2023/09/08 10:16:15;;;;;;;2.25;1.38;;;;;;;32.41;32.06;99291.00;5076477;28;20203;-87
2023/09/08 10:18:45;;;;;;;5.60;1.30;;;;;;;32.64;30.26;99291.31;5058312;28;20161;-88
2023/09/08 10:21:14;;;;;;;2.88;1.23;;;;;;;32.68;30.81;99289.78;5076350;28;20211;-89
2023/09/08 10:23:54;;;;;;;4.15;1.63;;;;;;;32.60;31.95;99292.81;5058594;28;20177;-88
2023/09/08 10:26:27;;;;;;;4.57;1.65;;;;;;;32.78;31.20;99301.03;5076238;28;20242;-89
2023/09/08 10:28:55;;;;;;;2.13;1.20;;;;;;;33.06;30.42;99290.63;5057962;28;20629;-88
2023/09/08 10:31:26;;;;;;;3.38;1.40;;;;;;;33.08;30.57;99285.78;5075802;28;20173;-88
2023/09/08 10:33:54;;;;;;;2.83;1.40;;;;;;;33.04;30.22;99283.72;5058034;28;20176;-88
2023/09/08 10:36:21;;;;;;;3.88;1.65;;;;;;;32.97;30.80;99278.31;5075761;28;20225;-88
2023/09/08 10:38:50;;;;;;;5.03;1.75;;;;;;;33.13;30.36;99275.09;5057732;28;20272;-89
2023/09/08 10:41:16;;;;;;;2.50;1.30;;;;;;;33.11;29.95;99277.19;5058518;28;20653;-89
2023/09/08 10:44:01;;;;;;;3.33;1.38;;;;;;;32.98;30.38;99277.28;5058252;28;20189;-87
2023/09/08 10:46:28;;;;;;;3.05;1.90;;;;;;;32.57;31.26;99275.06;5075804;28;20177;-88
2023/09/08 10:49:03;;;;;;;5.13;1.30;;;;;;;32.75;31.12;99269.72;5058085;28;20290;-88
2023/09/08 10:51:30;;;;;;;4.22;1.67;;;;;;;33.00;31.27;99266.19;5057747;28;20168;-88
2023/09/08 10:53:57;;;;;;;3.03;1.40;;;;;;;33.16;29.51;99258.34;5075702;28;20197;-88
2023/09/08 10:56:28;;;;;;;3.22;1.23;;;;;;;33.11;30.09;99260.91;5058885;28;20267;-88
2023/09/08 10:58:55;;;;;;;2.00;1.23;;;;;;;32.98;30.33;99246.56;5057713;28;20593;-87
2023/09/08 11:01:26;;;;;;;3.03;1.50;;;;;;;32.76;30.30;99254.25;5057656;28;20192;-88
2023/09/08 11:03:52;;;;;;;4.25;1.75;;;;;;;33.26;29.39;99239.66;5057704;28;20262;-88
2023/09/08 11:06:23;;;;;;;3.22;1.80;;;;;;;33.47;28.53;99248.41;5075440;28;20177;-87
2023/09/08 11:08:55;;;;;;;3.38;1.67;;;;;;;33.47;28.84;99237.53;5058253;28;20612;-88
2023/09/08 11:11:22;;;;;;;3.45;1.58;;;;;;;33.38;29.54;99243.31;5075727;28;20161;-88
2023/09/08 11:13:48;;;;;;;5.72;1.38;;;;;;;33.16;28.83;99246.63;5052396;28;20188;-88
2023/09/08 11:16:15;;;;;;;3.33;1.50;;;;;;;32.78;29.36;99246.72;5056739;28;20189;-87
2023/09/08 11:18:42;;;;;;;6.35;1.60;;;;;;;32.73;29.51;99238.41;5074678;28;20173;-88
2023/09/08 11:21:10;;;;;;;2.35;1.45;;;;;;;32.97;29.00;99234.84;5075136;28;20615;-89
2023/09/08 11:23:38;;;;;;;3.22;1.30;;;;;;;33.10;28.75;99234.78;5074792;28;20263;-88
2023/09/08 11:26:03;;;;;;;4.22;1.45;;;;;;;33.09;29.11;99226.84;5075295;28;20238;-88
2023/09/08 11:28:30;;;;;;;4.20;1.40;;;;;;;33.42;28.52;99233.63;5074342;28;20200;-88
2023/09/08 11:30:57;;;;;;;2.47;1.15;;;;;;;33.39;29.04;99225.94;5074822;28;20615;-88
2023/09/08 11:33:26;;;;;;;4.05;1.58;;;;;;;32.98;28.51;99217.53;5074710;28;20185;-88
2023/09/08 11:35:54;;;;;;;2.40;1.23;;;;;;;33.34;29.31;99219.50;5053540;28;20240;-88
2023/09/08 11:38:29;;;;;;;2.83;1.70;;;;;;;33.78;28.45;99207.56;5054410;28;20181;-88